Sawyer International Airport Marquette US
ICAO: KSAW
IATA: SAW
Category: Medium
Scheduled Services: No

Elevation: 1221 ft
TransAlt. 18000 ft.

Airport Communications:
AWOS 3:118.375
MINNEAPOLIS CNTR:119.1
CTAF:119.975
GND:121.65
GREEN BAY RDO:123.6
TWR:119.975
UNICOM:122.7

KSAW Zoom In..

Runways:

(A) RW 01 length 12366 ft width 150 ft
ILS 110.10 / hdg 13

(B) RW 19 length 12366 ft width 150 ft
---- / hdg 193

Location; KSAW
Day. 23 / Time. 21.48 Zulu
* Altimeter: 30.12
* Temperature: 25° c. 77°f.
* Wind from: 050° Speed 12 kn.
Dewpoint: 06° c.
Visibility: 10 Statute Miles.
Clouds: Clear (manual report).

KSAW 232148Z 05012KT 10SM SKC 25/06 A3012


Wind From 050°
Speed 12 kn.

 
 
jpsmedia.com for Web Design SOUNDCLOUD worldairports.se 2018   terms of use